createdAt,value
2019-05-09T00:00:26.238Z,40.65
2019-05-09T00:01:26.230Z,40.63
2019-05-09T00:02:26.225Z,40.63
2019-05-09T00:03:26.235Z,40.33
2019-05-09T00:04:26.206Z,40.55
2019-05-09T00:05:26.189Z,40.43
2019-05-09T00:06:26.176Z,40.73
2019-05-09T00:07:26.167Z,40.43
2019-05-09T00:08:26.164Z,40.73
2019-05-09T00:09:26.160Z,40.93
2019-05-09T00:10:38.518Z,40.55
2019-05-09T00:11:27.120Z,40.55
2019-05-09T00:12:26.118Z,40.33
2019-05-09T00:13:26.104Z,39.93
2019-05-09T00:14:26.111Z,40.43
2019-05-09T00:15:26.083Z,40.45
2019-05-09T00:16:26.072Z,40.45
2019-05-09T00:17:26.054Z,40.35
2019-05-09T00:18:26.047Z,40.15
2019-05-09T00:19:26.053Z,40.13
2019-05-09T00:20:26.025Z,39.93
2019-05-09T00:21:26.010Z,39.93
2019-05-09T00:22:26.014Z,40.33
2019-05-09T00:23:25.988Z,40.55
2019-05-09T00:24:25.992Z,39.95
2019-05-09T00:25:25.966Z,39.93
2019-05-09T00:26:25.958Z,40.15
2019-05-09T00:27:25.956Z,40.03
2019-05-09T00:28:25.947Z,40.15
2019-05-09T00:29:25.951Z,40.15
2019-05-09T00:30:25.926Z,40.05
2019-05-09T00:31:25.902Z,39.75
2019-05-09T00:32:25.897Z,39.95
2019-05-09T00:33:25.908Z,39.95
2019-05-09T00:34:25.896Z,40.45
2019-05-09T00:35:25.858Z,39.85
2019-05-09T00:36:25.849Z,39.85
2019-05-09T00:37:25.845Z,39.95
2019-05-09T00:38:25.830Z,39.95
2019-05-09T00:39:25.834Z,39.95
2019-05-09T00:40:25.806Z,40.55
2019-05-09T00:41:25.797Z,40.63
2019-05-09T00:42:25.782Z,40.55
2019-05-09T00:43:25.771Z,41.05
2019-05-09T00:44:25.775Z,40.55
2019-05-09T00:45:25.748Z,40.55
2019-05-09T00:46:25.746Z,40.35
2019-05-09T00:47:25.731Z,39.95
2019-05-09T00:48:25.720Z,40.15
2019-05-09T00:49:25.725Z,40.33
2019-05-09T00:50:25.699Z,40.15
2019-05-09T00:51:25.688Z,40.05
2019-05-09T00:52:25.680Z,40.55
2019-05-09T00:53:25.663Z,40.15
2019-05-09T00:54:25.674Z,40.35
2019-05-09T00:55:25.644Z,40.45
2019-05-09T00:56:25.645Z,40.23
2019-05-09T00:57:25.621Z,40.45
2019-05-09T00:58:25.610Z,40.45
2019-05-09T00:59:25.626Z,40.45
2019-05-09T01:00:25.586Z,40.45
2019-05-09T01:01:25.582Z,40.55
2019-05-09T01:02:25.564Z,40.45
2019-05-09T01:03:25.551Z,40.95
2019-05-09T01:04:25.542Z,40.55
2019-05-09T01:05:25.554Z,40.55
2019-05-09T01:06:25.521Z,41.15
2019-05-09T01:07:25.515Z,40.55
2019-05-09T01:08:25.502Z,40.75
2019-05-09T01:09:25.486Z,40.45
2019-05-09T01:10:25.503Z,40.45
2019-05-09T01:11:25.468Z,40.15
2019-05-09T01:12:25.463Z,40.45
2019-05-09T01:13:25.449Z,40.35
2019-05-09T01:14:25.435Z,40.15
2019-05-09T01:15:25.436Z,40.35
2019-05-09T01:16:25.419Z,40.35
2019-05-09T01:17:25.409Z,40.45
2019-05-09T01:18:25.390Z,40.45
2019-05-09T01:19:25.380Z,40.45
2019-05-09T01:20:25.381Z,40.45
2019-05-09T01:21:25.356Z,40.55
2019-05-09T01:22:25.349Z,40.55
2019-05-09T01:23:25.338Z,40.45
2019-05-09T01:24:25.339Z,40.65
2019-05-09T01:25:25.328Z,40.65
2019-05-09T01:26:25.302Z,41.15
2019-05-09T01:27:25.298Z,40.65
2019-05-09T01:28:25.281Z,40.25
2019-05-09T01:29:25.274Z,40.75
2019-05-09T01:30:25.279Z,40.45
2019-05-09T01:31:25.248Z,40.45
2019-05-09T01:32:25.238Z,40.45
2019-05-09T01:33:25.235Z,40.75
2019-05-09T01:34:25.218Z,41.15
2019-05-09T01:35:25.223Z,40.45
2019-05-09T01:36:25.194Z,40.55
2019-05-09T01:37:25.188Z,40.55
2019-05-09T01:38:25.176Z,40.65
2019-05-09T01:39:25.165Z,40.85
2019-05-09T01:40:25.194Z,40.55
2019-05-09T01:41:30.855Z,40.75
2019-05-09T01:42:26.128Z,40.65
2019-05-09T01:43:25.122Z,40.75
2019-05-09T01:44:25.114Z,40.45
2019-05-09T01:45:25.095Z,40.25
2019-05-09T01:46:25.101Z,40.65
2019-05-09T01:47:25.079Z,40.45
2019-05-09T01:48:25.067Z,40.45
2019-05-09T01:49:25.052Z,40.45
2019-05-09T01:50:25.044Z,40.55
2019-05-09T01:51:25.044Z,40.45
2019-05-09T01:52:25.035Z,40.65
2019-05-09T01:53:25.007Z,40.55
2019-05-09T01:54:25.011Z,40.75
2019-05-09T01:55:24.986Z,40.55
2019-05-09T01:56:24.992Z,40.45
2019-05-09T01:57:24.978Z,40.45
2019-05-09T01:58:24.957Z,40.45
2019-05-09T01:59:24.942Z,40.45
2019-05-09T02:00:24.933Z,40.45
2019-05-09T02:01:24.937Z,40.55
2019-05-09T02:02:24.911Z,40.45
2019-05-09T02:03:24.908Z,40.45
2019-05-09T02:04:24.890Z,40.55
2019-05-09T02:05:24.877Z,40.55
2019-05-09T02:06:24.888Z,40.65
2019-05-09T02:07:24.857Z,40.75
2019-05-09T02:08:24.846Z,40.65
2019-05-09T02:09:24.833Z,40.55
2019-05-09T02:10:24.827Z,40.75
2019-05-09T02:11:39.121Z,40.75
2019-05-09T02:12:25.803Z,40.95
2019-05-09T02:13:24.788Z,40.45
2019-05-09T02:14:24.787Z,41.05
2019-05-09T02:15:24.774Z,41.05
2019-05-09T02:16:24.784Z,40.95
2019-05-09T02:17:24.747Z,40.85
2019-05-09T02:18:24.734Z,40.45
2019-05-09T02:19:24.730Z,40.95
2019-05-09T02:20:24.723Z,40.95
2019-05-09T02:21:24.719Z,40.45
2019-05-09T02:22:24.689Z,40.95
2019-05-09T02:23:24.681Z,40.35
2019-05-09T02:24:24.667Z,40.95
2019-05-09T02:25:24.656Z,40.95
2019-05-09T02:26:24.673Z,41.05
2019-05-09T02:27:24.637Z,40.25
2019-05-09T02:28:24.623Z,40.85
2019-05-09T02:29:24.614Z,40.95
2019-05-09T02:30:25.581Z,40.85
2019-05-09T02:31:24.890Z,40.95
2019-05-09T02:32:24.584Z,40.45
2019-05-09T02:33:25.061Z,41.05
2019-05-09T02:34:25.090Z,40.95
2019-05-09T02:35:24.549Z,40.45
2019-05-09T02:36:24.537Z,40.95
2019-05-09T02:37:24.541Z,41.05
2019-05-09T02:38:24.514Z,40.35
2019-05-09T02:39:24.508Z,40.55
2019-05-09T02:40:24.505Z,40.75
2019-05-09T02:41:24.481Z,40.65
2019-05-09T02:42:24.487Z,40.85
2019-05-09T02:43:24.458Z,40.85
2019-05-09T02:44:24.446Z,40.95
2019-05-09T02:45:24.437Z,40.95
2019-05-09T02:46:24.431Z,40.95
2019-05-09T02:47:24.437Z,40.95
2019-05-09T02:48:24.411Z,40.75
2019-05-09T02:49:24.408Z,40.35
2019-05-09T02:50:24.385Z,40.35
2019-05-09T02:51:24.381Z,41.05
2019-05-09T02:52:24.388Z,41.15
2019-05-09T02:53:24.365Z,40.85
2019-05-09T02:54:24.338Z,41.07
2019-05-09T02:55:24.329Z,41.15
2019-05-09T02:56:24.319Z,40.87
2019-05-09T02:57:24.327Z,40.47
2019-05-09T02:58:24.299Z,41.05
2019-05-09T02:59:24.304Z,40.85
2019-05-09T03:00:24.275Z,41.27
2019-05-09T03:01:24.262Z,40.85
2019-05-09T03:02:24.269Z,40.97
2019-05-09T03:03:24.242Z,40.95
2019-05-09T03:04:24.237Z,41.05
2019-05-09T03:05:24.220Z,40.45
2019-05-09T03:06:24.207Z,40.45
2019-05-09T03:07:24.220Z,41.07
2019-05-09T03:08:24.196Z,40.85
2019-05-09T03:09:24.179Z,41.05
2019-05-09T03:10:24.171Z,41.35
2019-05-09T03:11:24.164Z,41.05
2019-05-09T03:12:34.540Z,41.15
2019-05-09T03:13:25.138Z,41.15
2019-05-09T03:14:24.126Z,40.95
2019-05-09T03:15:24.118Z,40.95
2019-05-09T03:16:24.101Z,40.95
2019-05-09T03:17:24.105Z,40.75
2019-05-09T03:18:24.087Z,40.55
2019-05-09T03:19:24.069Z,40.75
2019-05-09T03:20:24.058Z,40.55
2019-05-09T03:21:24.064Z,40.55
2019-05-09T03:22:24.053Z,40.45
2019-05-09T03:23:24.026Z,40.73
2019-05-09T03:24:24.012Z,40.75
2019-05-09T03:25:24.021Z,40.45
2019-05-09T03:26:23.992Z,40.25
2019-05-09T03:27:23.995Z,40.65
2019-05-09T03:28:23.971Z,40.45
2019-05-09T03:29:23.960Z,40.75
2019-05-09T03:30:23.949Z,40.45
2019-05-09T03:31:23.938Z,40.43
2019-05-09T03:32:23.949Z,40.45
2019-05-09T03:33:23.935Z,40.45
2019-05-09T03:34:23.911Z,40.45
2019-05-09T03:35:23.902Z,40.65
2019-05-09T03:36:23.889Z,40.65
2019-05-09T03:37:23.911Z,40.55
2019-05-09T03:38:23.863Z,40.93
2019-05-09T03:39:23.855Z,40.45
2019-05-09T03:40:23.866Z,40.45
2019-05-09T03:41:23.825Z,41.05
2019-05-09T03:42:38.072Z,41.24
2019-05-09T03:43:24.826Z,40.85
2019-05-09T03:44:23.807Z,41.33
2019-05-09T03:45:23.782Z,41.13
2019-05-09T03:46:23.773Z,41.24
2019-05-09T03:47:23.766Z,41.25
2019-05-09T03:48:23.776Z,41.55
2019-05-09T03:49:23.748Z,41.03
2019-05-09T03:50:23.728Z,41.13
2019-05-09T03:51:23.717Z,41.13
2019-05-09T03:52:23.712Z,41.13
2019-05-09T03:53:23.719Z,41.13
2019-05-09T03:54:23.684Z,41.13
2019-05-09T03:55:23.680Z,41.24
2019-05-09T03:56:23.664Z,41.03
2019-05-09T03:57:23.651Z,41.13
2019-05-09T03:58:23.668Z,41.13
2019-05-09T03:59:23.628Z,41.13
2019-05-09T04:00:23.621Z,40.63
2019-05-09T04:01:23.608Z,41.53
2019-05-09T04:02:23.617Z,40.93
2019-05-09T04:03:23.610Z,41.03
2019-05-09T04:04:23.590Z,41.13
2019-05-09T04:05:23.566Z,41.13
2019-05-09T04:06:23.560Z,41.24
2019-05-09T04:07:23.546Z,41.13
2019-05-09T04:08:23.549Z,41.13
2019-05-09T04:09:23.524Z,40.83
2019-05-09T04:10:23.512Z,41.13
2019-05-09T04:11:23.500Z,40.43
2019-05-09T04:12:23.500Z,40.43
2019-05-09T04:13:23.494Z,40.33
2019-05-09T04:14:23.474Z,40.43
2019-05-09T04:15:23.455Z,41.03
2019-05-09T04:16:23.450Z,40.53
2019-05-09T04:17:23.438Z,39.73
2019-05-09T04:18:23.454Z,39.83
2019-05-09T04:19:23.414Z,39.93
2019-05-09T04:20:23.405Z,39.93
2019-05-09T04:21:23.393Z,40.93
2019-05-09T04:22:23.382Z,39.63
2019-05-09T04:23:23.391Z,39.73
2019-05-09T04:24:23.357Z,39.53
2019-05-09T04:25:23.350Z,39.53
2019-05-09T04:26:23.342Z,39.73
2019-05-09T04:27:23.360Z,39.33
2019-05-09T04:28:30.450Z,39.53
2019-05-09T04:29:23.303Z,40.03
2019-05-09T04:30:23.291Z,39.33
2019-05-09T04:31:23.281Z,39.83
2019-05-09T04:32:23.270Z,40.03
2019-05-09T04:33:23.274Z,40.33
2019-05-09T04:34:23.249Z,39.43
2019-05-09T04:35:23.238Z,39.33
2019-05-09T04:36:23.226Z,40.43
2019-05-09T04:37:23.216Z,40.33
2019-05-09T04:38:23.218Z,40.03
2019-05-09T04:39:23.808Z,40.25
2019-05-09T04:40:23.185Z,40.23
2019-05-09T04:41:23.862Z,39.55
2019-05-09T04:42:23.162Z,40.13
2019-05-09T04:43:34.669Z,40.15
2019-05-09T04:44:24.137Z,39.45
2019-05-09T04:45:23.129Z,39.23
2019-05-09T04:46:24.479Z,39.33
2019-05-09T04:47:23.110Z,39.43
2019-05-09T04:48:24.035Z,39.33
2019-05-09T04:49:23.088Z,39.53
2019-05-09T04:50:24.816Z,39.43
2019-05-09T04:51:23.063Z,39.45
2019-05-09T04:52:23.052Z,39.73
2019-05-09T04:53:23.041Z,39.45
2019-05-09T04:54:23.043Z,39.45
2019-05-09T04:55:23.025Z,39.85
2019-05-09T04:56:23.010Z,39.33
2019-05-09T04:57:22.998Z,39.55
2019-05-09T04:58:22.989Z,39.23
2019-05-09T04:59:22.993Z,40.15
2019-05-09T05:00:22.964Z,39.45
2019-05-09T05:01:22.953Z,39.65
2019-05-09T05:02:22.941Z,39.35
2019-05-09T05:03:22.931Z,39.25
2019-05-09T05:04:22.933Z,39.83
2019-05-09T05:05:22.910Z,39.45
2019-05-09T05:06:22.897Z,39.65
2019-05-09T05:07:22.888Z,39.35
2019-05-09T05:08:22.879Z,39.23
2019-05-09T05:09:22.886Z,39.55
2019-05-09T05:10:22.854Z,39.95
2019-05-09T05:11:22.843Z,39.43
2019-05-09T05:12:22.832Z,39.65
2019-05-09T05:13:26.619Z,39.53
2019-05-09T05:14:22.832Z,39.53
2019-05-09T05:15:22.810Z,39.63
2019-05-09T05:16:22.790Z,39.43
2019-05-09T05:17:22.779Z,39.53
2019-05-09T05:18:22.767Z,39.63
2019-05-09T05:19:22.779Z,39.53
2019-05-09T05:20:22.747Z,39.53
2019-05-09T05:21:22.735Z,39.53
2019-05-09T05:22:22.723Z,39.63
2019-05-09T05:23:22.713Z,39.53
2019-05-09T05:24:22.715Z,39.83
2019-05-09T05:25:22.690Z,39.63
2019-05-09T05:26:22.678Z,39.53
2019-05-09T05:27:22.674Z,39.33
2019-05-09T05:28:22.657Z,38.83
2019-05-09T05:29:22.673Z,39.23
2019-05-09T05:30:22.641Z,39.03
2019-05-09T05:31:22.623Z,38.83
2019-05-09T05:32:22.615Z,38.83
2019-05-09T05:33:22.603Z,38.93
2019-05-09T05:34:22.592Z,39.31
2019-05-09T05:35:22.594Z,39.23
2019-05-09T05:36:22.569Z,39.22
2019-05-09T05:37:22.560Z,39.01
2019-05-09T05:38:22.547Z,39.11
2019-05-09T05:39:22.537Z,39.01
2019-05-09T05:40:22.545Z,39.01
2019-05-09T05:41:22.515Z,38.71
2019-05-09T05:42:22.504Z,38.51
2019-05-09T05:43:22.493Z,39.22
2019-05-09T05:44:22.484Z,38.91
2019-05-09T05:45:22.492Z,39.22
2019-05-09T05:46:22.467Z,38.89
2019-05-09T05:47:22.450Z,38.89
2019-05-09T05:48:22.440Z,39.00
2019-05-09T05:49:22.429Z,38.42
2019-05-09T05:50:22.433Z,38.81
2019-05-09T05:51:22.407Z,38.79
2019-05-09T05:52:22.397Z,39.22
2019-05-09T05:53:22.386Z,38.59
2019-05-09T05:54:22.375Z,38.71
2019-05-09T05:55:22.378Z,38.59
2019-05-09T05:56:22.357Z,38.59
2019-05-09T05:57:22.344Z,38.61
2019-05-09T05:58:22.332Z,38.79
2019-05-09T05:59:22.332Z,38.59
2019-05-09T06:00:22.338Z,38.61
2019-05-09T06:01:22.304Z,39.01
2019-05-09T06:02:22.289Z,38.81
2019-05-09T06:03:22.279Z,38.79
2019-05-09T06:04:22.268Z,38.70
2019-05-09T06:05:22.270Z,38.89
2019-05-09T06:06:22.246Z,38.91
2019-05-09T06:07:22.235Z,38.81
2019-05-09T06:08:22.224Z,38.81
2019-05-09T06:09:22.214Z,38.81
2019-05-09T06:10:22.216Z,38.71
2019-05-09T06:11:22.194Z,38.91
2019-05-09T06:12:22.181Z,38.51
2019-05-09T06:13:22.170Z,38.51
2019-05-09T06:14:22.160Z,38.51
2019-05-09T06:15:22.170Z,38.51
2019-05-09T06:16:22.433Z,38.51
2019-05-09T06:17:22.127Z,38.61
2019-05-09T06:18:22.116Z,38.51
2019-05-09T06:19:22.105Z,38.51
2019-05-09T06:20:22.095Z,38.71
2019-05-09T06:21:22.097Z,38.91
2019-05-09T06:22:22.074Z,38.51
2019-05-09T06:23:22.065Z,38.61
2019-05-09T06:24:22.050Z,38.51
2019-05-09T06:25:22.041Z,38.51
2019-05-09T06:26:22.044Z,38.61
2019-05-09T06:27:22.020Z,38.71
2019-05-09T06:28:22.008Z,38.42
2019-05-09T06:29:22.000Z,38.71
2019-05-09T06:30:21.985Z,38.71
2019-05-09T06:31:21.991Z,38.51
2019-05-09T06:32:21.966Z,38.61
2019-05-09T06:33:21.956Z,38.81
2019-05-09T06:34:21.946Z,39.01
2019-05-09T06:35:21.932Z,38.71
2019-05-09T06:36:21.937Z,38.71
2019-05-09T06:37:21.911Z,38.71
2019-05-09T06:38:21.905Z,39.01
2019-05-09T06:39:21.891Z,38.51
2019-05-09T06:40:21.881Z,38.71
2019-05-09T06:41:21.888Z,38.51
2019-05-09T06:42:21.856Z,38.51
2019-05-09T06:43:21.848Z,38.91
2019-05-09T06:44:21.835Z,38.81
2019-05-09T06:45:21.825Z,38.51
2019-05-09T06:46:21.827Z,38.61
2019-05-09T06:47:21.802Z,38.51
2019-05-09T06:48:21.791Z,38.61
2019-05-09T06:49:28.395Z,38.71
2019-05-09T06:50:22.767Z,38.51
2019-05-09T06:51:21.773Z,38.31
2019-05-09T06:52:21.749Z,38.51
2019-05-09T06:53:21.737Z,38.71
2019-05-09T06:54:21.725Z,38.11
2019-05-09T06:55:21.716Z,38.33
2019-05-09T06:56:21.720Z,38.63
2019-05-09T06:57:21.695Z,38.53
2019-05-09T06:58:21.683Z,38.23
2019-05-09T06:59:21.674Z,38.71
2019-05-09T07:00:21.662Z,38.63
2019-05-09T07:01:21.668Z,38.53
2019-05-09T07:02:21.639Z,38.53
2019-05-09T07:03:21.629Z,38.61
2019-05-09T07:04:21.618Z,38.83
2019-05-09T07:05:21.607Z,38.83
2019-05-09T07:06:21.641Z,38.63
2019-05-09T07:07:21.585Z,38.83
2019-05-09T07:08:21.575Z,38.63
2019-05-09T07:09:21.564Z,38.63
2019-05-09T07:10:21.558Z,38.63
2019-05-09T07:11:21.579Z,38.83
2019-05-09T07:12:21.530Z,38.53
2019-05-09T07:13:21.520Z,38.43
2019-05-09T07:14:28.978Z,39.03
2019-05-09T07:15:22.496Z,38.93
2019-05-09T07:16:21.487Z,39.01
2019-05-09T07:17:21.490Z,38.63
2019-05-09T07:18:21.465Z,39.23
2019-05-09T07:19:21.453Z,38.71
2019-05-09T07:20:21.444Z,38.63
2019-05-09T07:21:21.432Z,38.53
2019-05-09T07:22:21.435Z,39.13
2019-05-09T07:23:21.409Z,38.83
2019-05-09T07:24:21.397Z,39.13
2019-05-09T07:25:21.387Z,38.33
2019-05-09T07:26:21.375Z,38.83
2019-05-09T07:27:21.377Z,38.53
2019-05-09T07:28:21.353Z,38.83
2019-05-09T07:29:21.343Z,38.53
2019-05-09T07:30:21.332Z,38.51
2019-05-09T07:31:21.319Z,38.53
2019-05-09T07:32:21.330Z,38.61
2019-05-09T07:33:21.299Z,38.51
2019-05-09T07:34:21.303Z,38.53
2019-05-09T07:35:21.275Z,38.63
2019-05-09T07:36:21.265Z,38.71
2019-05-09T07:37:21.274Z,38.73
2019-05-09T07:38:21.286Z,38.91
2019-05-09T07:39:21.230Z,38.61
2019-05-09T07:40:21.224Z,38.81
2019-05-09T07:41:21.214Z,38.91
2019-05-09T07:42:21.213Z,38.91
2019-05-09T07:43:21.187Z,39.11
2019-05-09T07:44:21.177Z,39.22
2019-05-09T07:45:21.165Z,39.11
2019-05-09T07:46:21.154Z,39.01
2019-05-09T07:47:21.161Z,38.81
2019-05-09T07:48:21.133Z,38.83
2019-05-09T07:49:21.120Z,38.81
2019-05-09T07:50:21.110Z,38.71
2019-05-09T07:51:21.099Z,38.63
2019-05-09T07:52:21.102Z,38.31
2019-05-09T07:53:21.076Z,38.51
2019-05-09T07:54:25.498Z,38.51
2019-05-09T07:55:21.056Z,38.51
2019-05-09T07:56:21.045Z,39.11
2019-05-09T07:57:21.064Z,38.61
2019-05-09T07:58:21.020Z,38.61
2019-05-09T07:59:21.013Z,38.61
2019-05-09T08:00:20.999Z,38.51
2019-05-09T08:01:20.986Z,38.61
2019-05-09T08:02:20.976Z,38.40
2019-05-09T08:03:20.981Z,38.59
2019-05-09T08:04:20.991Z,39.00
2019-05-09T08:05:20.943Z,38.79
2019-05-09T08:06:20.933Z,38.79
2019-05-09T08:07:20.923Z,38.79
2019-05-09T08:08:20.927Z,38.79
2019-05-09T08:09:20.906Z,38.79
2019-05-09T08:10:20.901Z,38.79
2019-05-09T08:11:20.878Z,38.59
2019-05-09T08:12:20.869Z,38.59
2019-05-09T08:13:21.459Z,38.79
2019-05-09T08:14:20.845Z,38.38
2019-05-09T08:15:20.836Z,38.28
2019-05-09T08:16:20.827Z,38.57
2019-05-09T08:17:20.812Z,38.38
2019-05-09T08:18:20.817Z,38.48
2019-05-09T08:19:20.790Z,38.38
2019-05-09T08:20:20.779Z,37.58
2019-05-09T08:21:20.768Z,38.68
2019-05-09T08:22:25.609Z,38.06
2019-05-09T08:23:21.757Z,37.76
2019-05-09T08:24:20.754Z,37.56
2019-05-09T08:25:20.736Z,37.76
2019-05-09T08:26:20.713Z,37.66
2019-05-09T08:27:20.702Z,37.96
2019-05-09T08:28:20.724Z,37.66
2019-05-09T08:29:20.678Z,37.86
2019-05-09T08:30:20.666Z,37.76
2019-05-09T08:31:20.655Z,36.86
2019-05-09T08:32:20.643Z,36.86
2019-05-09T08:33:20.634Z,36.86
2019-05-09T08:34:20.638Z,36.86
2019-05-09T08:35:20.612Z,37.06
2019-05-09T08:36:20.600Z,37.46
2019-05-09T08:37:20.590Z,37.46
2019-05-09T08:38:20.579Z,37.44
2019-05-09T08:39:20.898Z,37.24
2019-05-09T08:40:21.449Z,37.24
2019-05-09T08:41:20.552Z,37.14
2019-05-09T08:42:20.536Z,37.64
2019-05-09T08:43:20.533Z,37.14
2019-05-09T08:44:20.527Z,37.64
2019-05-09T08:45:27.691Z,36.94
2019-05-09T08:46:21.491Z,37.23
2019-05-09T08:47:20.491Z,37.44
2019-05-09T08:48:20.470Z,36.94
2019-05-09T08:49:20.471Z,37.12
2019-05-09T08:50:20.447Z,36.93
2019-05-09T08:51:20.438Z,36.93
2019-05-09T08:52:20.429Z,36.94
2019-05-09T08:53:20.481Z,36.93
2019-05-09T08:54:20.419Z,36.63
2019-05-09T08:55:20.392Z,36.93
2019-05-09T08:56:20.384Z,36.63
2019-05-09T08:57:20.373Z,36.94
2019-05-09T08:58:20.361Z,36.54
2019-05-09T08:59:20.388Z,36.84
2019-05-09T09:00:20.339Z,37.04
2019-05-09T09:01:31.409Z,36.74
2019-05-09T09:02:22.478Z,36.84
2019-05-09T09:03:20.306Z,36.74
2019-05-09T09:04:20.308Z,36.64
2019-05-09T09:05:20.285Z,36.64
2019-05-09T09:06:20.273Z,36.54
2019-05-09T09:07:20.269Z,36.94
2019-05-09T09:08:20.251Z,36.04
2019-05-09T09:09:20.254Z,35.85
2019-05-09T09:10:20.231Z,35.94
2019-05-09T09:11:20.204Z,35.94
2019-05-09T09:12:30.347Z,36.24
2019-05-09T09:13:21.180Z,36.24
2019-05-09T09:14:20.211Z,37.06
2019-05-09T09:15:20.160Z,36.44
2019-05-09T09:16:22.624Z,36.94
2019-05-09T09:17:20.154Z,36.54
2019-05-09T09:18:20.143Z,36.94
2019-05-09T09:19:20.122Z,36.94
2019-05-09T09:20:20.121Z,36.84
2019-05-09T09:21:20.096Z,36.84
2019-05-09T09:22:20.084Z,36.94
2019-05-09T09:23:20.072Z,36.34
2019-05-09T09:24:20.061Z,36.34
2019-05-09T09:25:20.068Z,36.04
2019-05-09T09:26:20.039Z,35.16
2019-05-09T09:27:20.030Z,35.16
2019-05-09T09:28:20.021Z,36.16
2019-05-09T09:29:20.008Z,36.26
2019-05-09T09:30:24.857Z,35.76
2019-05-09T09:31:20.985Z,35.96
2019-05-09T09:32:19.977Z,36.15
2019-05-09T09:33:19.967Z,35.26
2019-05-09T09:34:19.953Z,35.16
2019-05-09T09:35:19.956Z,34.76
2019-05-09T09:36:19.934Z,34.76
2019-05-09T09:37:19.920Z,34.76
2019-05-09T09:38:19.912Z,34.26
2019-05-09T09:39:19.904Z,34.76
2019-05-09T09:40:19.902Z,34.96
2019-05-09T09:41:19.878Z,33.96
2019-05-09T09:42:20.349Z,35.36
2019-05-09T09:43:19.856Z,35.16
2019-05-09T09:44:22.523Z,35.06
2019-05-09T09:45:19.848Z,35.16
2019-05-09T09:46:19.821Z,35.16
2019-05-09T09:47:23.253Z,34.56
2019-05-09T09:48:19.801Z,34.96
2019-05-09T09:49:19.792Z,33.96
2019-05-09T09:50:19.792Z,33.47
2019-05-09T09:51:19.771Z,33.48
2019-05-09T09:52:19.758Z,33.38
2019-05-09T09:53:19.746Z,32.46
2019-05-09T09:54:19.735Z,32.88
2019-05-09T09:55:19.738Z,33.47
2019-05-09T09:56:22.198Z,32.76
2019-05-09T09:57:19.703Z,33.38
2019-05-09T09:58:19.693Z,33.18
2019-05-09T09:59:19.688Z,32.68
2019-05-09T10:00:19.685Z,32.78
2019-05-09T10:01:19.660Z,32.78
2019-05-09T10:02:19.650Z,32.38
2019-05-09T10:03:19.646Z,31.98
2019-05-09T10:04:24.269Z,31.98
2019-05-09T10:05:19.651Z,31.98
2019-05-09T10:06:19.605Z,32.48
2019-05-09T10:07:19.594Z,32.68
2019-05-09T10:08:19.585Z,32.68
2019-05-09T10:09:19.573Z,32.58
2019-05-09T10:10:19.562Z,32.78
2019-05-09T10:11:19.565Z,32.08
2019-05-09T10:12:19.540Z,32.08
2019-05-09T10:13:19.529Z,32.20
2019-05-09T10:14:19.517Z,32.28
2019-05-09T10:15:19.508Z,32.20
2019-05-09T10:16:28.736Z,32.09
2019-05-09T10:17:21.605Z,33.00
2019-05-09T10:18:19.473Z,32.40
2019-05-09T10:19:19.463Z,32.59
2019-05-09T10:20:19.452Z,32.50
2019-05-09T10:21:19.456Z,32.70
2019-05-09T10:22:23.721Z,32.70
2019-05-09T10:23:21.577Z,32.29
2019-05-09T10:24:19.407Z,32.50
2019-05-09T10:25:19.397Z,32.89
2019-05-09T10:26:19.399Z,32.59
2019-05-09T10:27:19.376Z,32.01
2019-05-09T10:28:21.464Z,32.71
2019-05-09T10:29:19.351Z,32.09
2019-05-09T10:30:19.342Z,32.59
2019-05-09T10:31:19.344Z,32.09
2019-05-09T10:32:19.321Z,33.00
2019-05-09T10:33:19.313Z,32.40
2019-05-09T10:34:19.298Z,33.01
2019-05-09T10:35:19.293Z,33.09
2019-05-09T10:36:19.294Z,32.70
2019-05-09T10:37:19.267Z,32.89
2019-05-09T10:38:19.255Z,33.50
2019-05-09T10:39:19.242Z,33.39
2019-05-09T10:40:19.240Z,33.29
2019-05-09T10:41:19.234Z,33.29
2019-05-09T10:42:19.212Z,32.89
2019-05-09T10:43:33.431Z,33.09
2019-05-09T10:44:20.186Z,33.48
2019-05-09T10:45:19.177Z,33.58
2019-05-09T10:46:19.656Z,33.47
2019-05-09T10:47:19.522Z,33.26
2019-05-09T10:48:23.935Z,33.86
2019-05-09T10:49:20.131Z,33.47
2019-05-09T10:50:19.120Z,33.66
2019-05-09T10:51:19.124Z,33.96
2019-05-09T10:52:19.099Z,33.86
2019-05-09T10:53:19.088Z,33.95
2019-05-09T10:54:19.084Z,33.45
2019-05-09T10:55:19.066Z,33.25
2019-05-09T10:56:19.210Z,33.54
2019-05-09T10:57:19.049Z,33.84
2019-05-09T10:58:20.251Z,33.95
2019-05-09T10:59:19.021Z,33.93
2019-05-09T11:00:19.012Z,33.65
2019-05-09T11:01:19.005Z,33.65
2019-05-09T11:02:19.008Z,33.25
2019-05-09T11:03:18.983Z,33.15
2019-05-09T11:04:18.971Z,33.15
2019-05-09T11:05:18.956Z,32.73
2019-05-09T11:06:18.946Z,33.54
2019-05-09T11:07:18.968Z,33.43
2019-05-09T11:08:18.924Z,33.43
2019-05-09T11:09:18.914Z,33.65
2019-05-09T11:10:25.896Z,33.03
2019-05-09T11:11:19.940Z,32.83
2019-05-09T11:12:18.921Z,33.03
2019-05-09T11:13:18.875Z,33.03
2019-05-09T11:14:32.141Z,32.43
2019-05-09T11:15:19.848Z,32.83
2019-05-09T11:16:18.836Z,32.63
2019-05-09T11:17:21.832Z,32.14
2019-05-09T11:18:18.814Z,32.14
2019-05-09T11:19:18.804Z,32.14
2019-05-09T11:20:19.518Z,32.23
2019-05-09T11:21:19.520Z,32.93
2019-05-09T11:22:18.787Z,32.83
2019-05-09T11:23:19.404Z,33.33
2019-05-09T11:24:19.100Z,33.13
2019-05-09T11:25:18.739Z,33.23
2019-05-09T11:26:18.729Z,33.23
2019-05-09T11:27:18.776Z,33.43
2019-05-09T11:28:18.706Z,33.23
2019-05-09T11:29:18.923Z,33.53
2019-05-09T11:30:18.686Z,32.83
2019-05-09T11:31:19.128Z,32.42
2019-05-09T11:32:18.676Z,32.93
2019-05-09T11:33:18.655Z,32.83
2019-05-09T11:34:18.993Z,32.82
2019-05-09T11:35:18.630Z,32.93
2019-05-09T11:36:21.212Z,32.63
2019-05-09T11:37:21.849Z,32.71
2019-05-09T11:38:32.839Z,32.33
2019-05-09T11:39:35.137Z,32.82
2019-05-09T11:40:19.574Z,32.82
2019-05-09T11:41:19.493Z,32.82
2019-05-09T11:42:18.566Z,32.71
2019-05-09T11:43:18.544Z,33.23
2019-05-09T11:44:18.555Z,33.12
2019-05-09T11:45:18.521Z,33.03
2019-05-09T11:46:18.715Z,32.93
2019-05-09T11:47:31.900Z,33.13
2019-05-09T11:48:19.497Z,33.33
2019-05-09T11:49:18.480Z,33.13
2019-05-09T11:50:22.869Z,33.13
2019-05-09T11:51:22.671Z,32.93
2019-05-09T11:52:18.473Z,33.23
2019-05-09T11:53:18.434Z,33.13
2019-05-09T11:54:19.432Z,33.13
2019-05-09T11:55:29.708Z,33.04
2019-05-09T11:56:19.402Z,32.93
2019-05-09T11:57:19.127Z,34.13
2019-05-09T11:58:18.381Z,33.93
2019-05-09T11:59:19.058Z,33.93
2019-05-09T12:00:18.369Z,33.63
2019-05-09T12:01:19.181Z,33.23
2019-05-09T12:02:18.386Z,32.83
2019-05-09T12:03:18.917Z,32.33
2019-05-09T12:04:18.888Z,33.03
2019-05-09T12:05:19.285Z,33.13
2019-05-09T12:06:20.217Z,33.23
2019-05-09T12:07:18.283Z,33.12
2019-05-09T12:08:18.287Z,33.12
2019-05-09T12:09:18.265Z,33.23
2019-05-09T12:10:18.752Z,33.03
2019-05-09T12:11:18.730Z,33.13
2019-05-09T12:12:19.483Z,32.93
2019-05-09T12:13:18.667Z,32.73
2019-05-09T12:14:18.206Z,32.83
2019-05-09T12:15:18.194Z,32.73
2019-05-09T12:16:18.844Z,33.53
2019-05-09T12:17:19.589Z,33.53
2019-05-09T12:18:18.175Z,32.93
2019-05-09T12:19:18.267Z,32.93
2019-05-09T12:20:18.234Z,33.43
2019-05-09T12:21:19.190Z,33.53
2019-05-09T12:22:19.284Z,34.03
2019-05-09T12:23:19.973Z,33.93
2019-05-09T12:24:18.495Z,34.13
2019-05-09T12:25:18.428Z,34.11
2019-05-09T12:26:18.199Z,34.13
2019-05-09T12:27:18.905Z,34.03
2019-05-09T12:28:18.947Z,34.01
2019-05-09T12:29:19.623Z,33.51
2019-05-09T12:30:18.921Z,34.11
2019-05-09T12:31:18.454Z,33.72
2019-05-09T12:32:18.779Z,34.00
2019-05-09T12:33:18.787Z,34.11
2019-05-09T12:34:19.316Z,33.70
2019-05-09T12:35:19.085Z,33.60
2019-05-09T12:36:19.195Z,33.50
2019-05-09T12:37:18.365Z,34.09
2019-05-09T12:38:18.366Z,33.90
2019-05-09T12:39:18.750Z,33.90
2019-05-09T12:40:20.149Z,32.98
2019-05-09T12:41:18.955Z,33.28
2019-05-09T12:42:18.782Z,33.18
2019-05-09T12:43:18.574Z,32.68
2019-05-09T12:44:18.424Z,32.89
2019-05-09T12:45:18.153Z,32.98
2019-05-09T12:46:17.861Z,32.68
2019-05-09T12:47:19.040Z,33.37
2019-05-09T12:48:19.416Z,32.68
2019-05-09T12:49:18.919Z,32.97
2019-05-09T12:50:18.738Z,32.98
2019-05-09T12:51:18.490Z,32.98
2019-05-09T12:52:18.589Z,33.48